Terminal Aerodrome Forecast
Issued by NWS

Home | Current Version | Previous Version | Text Only | Print | Product List | Glossary Off
Versions: 1 2 3 4 5 6 7 8 9 10 11 12 13 14 15 16 17 18 19 20 21 22 23 24 25 26

000
FTUS42 KMHX 101900 AAA
TAFPGV
TAF AMD
KPGV 101959Z 1020/1118 24005KT P6SM VCTS SCT015 BKN040CB
      TEMPO 1020/1024 VRB20G35KT 1SM TSRA BKN010CB
     FM110700 VRB03KT 4SM BR VCSH BKN040 OVC200
      AMD LTD TO CLD VIS AND WIND=

USA.gov is the U.S. government's official web portal to all federal, state and local government web resources and services.